createdAt,value
2018-04-26T00:02:23.385Z,0.70
2018-04-26T00:04:52.584Z,0.70
2018-04-26T00:07:22.103Z,0.60
2018-04-26T00:09:51.613Z,1.07
2018-04-26T00:12:20.983Z,0.70
2018-04-26T00:14:50.431Z,0.90
2018-04-26T00:17:19.865Z,0.70
2018-04-26T00:19:49.468Z,0.80
2018-04-26T00:22:18.978Z,0.80
2018-04-26T00:24:48.460Z,0.70
2018-04-26T00:27:18.704Z,0.60
2018-04-26T00:29:48.197Z,0.80
2018-04-26T00:32:17.708Z,0.70
2018-04-26T00:34:47.144Z,0.70
2018-04-26T00:37:16.615Z,0.83
2018-04-26T00:39:46.683Z,0.80
2018-04-26T00:42:16.359Z,0.80
2018-04-26T00:44:46.131Z,1.00
2018-04-26T00:47:15.603Z,0.90
2018-04-26T00:49:45.193Z,0.60
2018-04-26T00:52:14.723Z,0.70
2018-04-26T00:54:44.482Z,0.70
2018-04-26T00:57:14.252Z,0.70
2018-04-26T00:59:43.456Z,0.70
2018-04-26T01:02:13.070Z,0.60
2018-04-26T01:04:42.572Z,0.57
2018-04-26T01:07:11.770Z,0.70
2018-04-26T01:09:41.096Z,0.60
2018-04-26T01:12:10.607Z,0.70
2018-04-26T01:14:40.101Z,0.90
2018-04-26T01:17:09.685Z,0.80
2018-04-26T01:19:38.886Z,0.60
2018-04-26T01:22:08.080Z,0.63
2018-04-26T01:24:37.308Z,0.80
2018-04-26T01:27:06.533Z,0.60
2018-04-26T01:29:35.963Z,0.90
2018-04-26T01:32:05.543Z,0.57
2018-04-26T01:34:34.952Z,0.60
2018-04-26T01:37:10.098Z,0.63
2018-04-26T01:39:40.340Z,0.70
2018-04-26T01:42:09.799Z,0.70
2018-04-26T01:44:39.327Z,0.70
2018-04-26T01:47:08.755Z,0.90
2018-04-26T01:49:38.336Z,0.70
2018-04-26T01:52:07.831Z,0.70
2018-04-26T01:54:37.372Z,0.60
2018-04-26T01:57:06.843Z,0.60
2018-04-26T01:59:36.383Z,0.87
2018-04-26T02:02:05.575Z,0.73
2018-04-26T02:04:35.275Z,0.60
2018-04-26T02:07:05.875Z,0.63
2018-04-26T02:09:35.441Z,0.70
2018-04-26T02:12:05.034Z,0.63
2018-04-26T02:14:34.552Z,0.70
2018-04-26T02:17:04.460Z,0.60
2018-04-26T02:19:33.983Z,0.60
2018-04-26T02:22:03.471Z,0.60
2018-04-26T02:24:32.935Z,0.60
2018-04-26T02:27:02.418Z,0.70
2018-04-26T02:29:31.634Z,0.73
2018-04-26T02:32:01.140Z,0.70
2018-04-26T02:34:30.744Z,0.80
2018-04-26T02:37:00.216Z,0.70
2018-04-26T02:39:29.606Z,0.80
2018-04-26T02:41:59.132Z,0.77
2018-04-26T02:44:28.848Z,0.87
2018-04-26T02:46:58.392Z,0.80
2018-04-26T02:49:27.895Z,0.83
2018-04-26T02:51:57.611Z,0.60
2018-04-26T02:54:27.120Z,0.77
2018-04-26T02:56:56.626Z,0.80
2018-04-26T02:59:26.147Z,1.00
2018-04-26T03:01:55.349Z,0.90
2018-04-26T03:04:24.847Z,0.60
2018-04-26T03:06:54.354Z,0.80
2018-04-26T03:09:23.875Z,0.77
2018-04-26T03:11:53.371Z,1.00
2018-04-26T03:14:22.859Z,0.73
2018-04-26T03:16:52.368Z,0.80
2018-04-26T03:19:21.831Z,0.73
2018-04-26T03:21:51.412Z,0.83
2018-04-26T03:24:20.619Z,0.70
2018-04-26T03:26:50.018Z,0.80
2018-04-26T03:29:19.525Z,0.80
2018-04-26T03:31:49.928Z,0.80
2018-04-26T03:34:19.152Z,0.83
2018-04-26T03:36:48.411Z,0.90
2018-04-26T03:39:17.619Z,1.13
2018-04-26T03:41:47.277Z,0.90
2018-04-26T03:44:16.754Z,0.80
2018-04-26T03:46:46.835Z,0.90
2018-04-26T03:49:16.708Z,0.97
2018-04-26T03:51:46.071Z,0.83
2018-04-26T03:54:15.541Z,0.90
2018-04-26T03:56:44.738Z,1.03
2018-04-26T03:59:14.223Z,0.90
2018-04-26T04:01:49.599Z,0.97
2018-04-26T04:04:24.733Z,1.00
2018-04-26T04:06:54.237Z,0.90
2018-04-26T04:09:23.691Z,0.80
2018-04-26T04:11:53.096Z,1.10
2018-04-26T04:14:22.541Z,0.87
2018-04-26T04:16:52.047Z,0.80
2018-04-26T04:19:21.639Z,0.90
2018-04-26T04:21:51.190Z,1.00
2018-04-26T04:24:20.589Z,1.10
2018-04-26T04:26:49.983Z,1.20
2018-04-26T04:29:19.491Z,1.00
2018-04-26T04:31:48.999Z,0.90
2018-04-26T04:34:18.590Z,1.00
2018-04-26T04:36:47.783Z,0.93
2018-04-26T04:39:17.316Z,1.10
2018-04-26T04:41:47.467Z,1.00
2018-04-26T04:44:16.663Z,1.27
2018-04-26T04:46:46.266Z,1.20
2018-04-26T04:49:16.286Z,1.00
2018-04-26T04:51:46.384Z,1.00
2018-04-26T04:54:15.907Z,1.10
2018-04-26T04:56:45.415Z,1.33
2018-04-26T04:59:14.615Z,1.10
2018-04-26T05:01:44.232Z,1.20
2018-04-26T05:04:13.527Z,1.27
2018-04-26T05:06:43.019Z,1.20
2018-04-26T05:09:12.655Z,1.40
2018-04-26T05:11:42.164Z,1.30
2018-04-26T05:14:11.392Z,1.80
2018-04-26T05:16:40.875Z,1.20
2018-04-26T05:19:10.309Z,1.33
2018-04-26T05:21:39.767Z,1.10
2018-04-26T05:24:09.244Z,1.30
2018-04-26T05:26:38.822Z,1.33
2018-04-26T05:29:08.018Z,1.60
2018-04-26T05:31:37.524Z,1.40
2018-04-26T05:34:07.055Z,1.60
2018-04-26T05:36:36.507Z,1.17
2018-04-26T05:39:06.176Z,1.60
2018-04-26T05:41:35.685Z,1.30
2018-04-26T05:44:05.195Z,1.60
2018-04-26T05:46:34.682Z,1.43
2018-04-26T05:49:04.212Z,1.77
2018-04-26T05:51:34.335Z,1.53
2018-04-26T05:54:04.229Z,1.57
2018-04-26T05:56:33.672Z,1.77
2018-04-26T05:59:03.537Z,1.60
2018-04-26T06:01:33.090Z,1.83
2018-04-26T06:04:02.638Z,2.27
2018-04-26T06:06:32.182Z,1.57
2018-04-26T06:09:01.599Z,1.87
2018-04-26T06:11:31.228Z,1.73
2018-04-26T06:14:00.428Z,1.77
2018-04-26T06:16:29.738Z,2.10
2018-04-26T06:19:00.270Z,1.67
2018-04-26T06:21:29.776Z,1.67
2018-04-26T06:23:59.275Z,1.50
2018-04-26T06:26:29.687Z,2.00
2018-04-26T06:28:58.904Z,1.80
2018-04-26T06:31:28.259Z,2.30
2018-04-26T06:33:57.805Z,1.90
2018-04-26T06:36:27.329Z,2.10
2018-04-26T06:38:56.526Z,2.13
2018-04-26T06:41:26.055Z,2.50
2018-04-26T06:43:55.395Z,2.23
2018-04-26T06:46:24.873Z,2.50
2018-04-26T06:48:55.093Z,2.10
2018-04-26T06:51:24.541Z,2.40
2018-04-26T06:53:53.979Z,2.40
2018-04-26T06:56:23.525Z,2.40
2018-04-26T06:58:53.003Z,3.30
2018-04-26T07:01:22.507Z,2.07
2018-04-26T07:03:52.045Z,2.37
2018-04-26T07:06:21.556Z,2.60
2018-04-26T07:08:51.039Z,2.40
2018-04-26T07:11:20.572Z,2.40
2018-04-26T07:13:49.776Z,2.30
2018-04-26T07:16:19.080Z,2.20
2018-04-26T07:18:48.277Z,2.30
2018-04-26T07:21:17.473Z,2.20
2018-04-26T07:23:47.298Z,2.50
2018-04-26T07:26:16.715Z,2.23
2018-04-26T07:28:46.218Z,2.23
2018-04-26T07:31:15.416Z,2.00
2018-04-26T07:33:44.869Z,2.20
2018-04-26T07:36:14.411Z,2.07
2018-04-26T07:38:43.944Z,2.23
2018-04-26T07:41:13.527Z,2.10
2018-04-26T07:43:42.983Z,2.27
2018-04-26T07:46:12.207Z,2.20
2018-04-26T07:48:41.779Z,2.10
2018-04-26T07:51:10.972Z,2.30
2018-04-26T07:53:40.468Z,2.83
2018-04-26T07:56:09.995Z,2.50
2018-04-26T07:58:39.195Z,3.00
2018-04-26T08:01:08.559Z,2.53
2018-04-26T08:03:38.087Z,2.30
2018-04-26T08:06:07.336Z,2.30
2018-04-26T08:08:36.930Z,2.27
2018-04-26T08:11:06.438Z,2.30
2018-04-26T08:13:35.921Z,1.97
2018-04-26T08:16:05.356Z,2.00
2018-04-26T08:18:34.967Z,2.03
2018-04-26T08:21:04.444Z,2.37
2018-04-26T08:23:34.163Z,2.27
2018-04-26T08:26:03.768Z,2.20
2018-04-26T08:28:33.004Z,3.37
2018-04-26T08:31:02.263Z,2.30
2018-04-26T08:33:31.783Z,2.60
2018-04-26T08:36:00.988Z,2.50
2018-04-26T08:38:30.180Z,2.33
2018-04-26T08:40:59.742Z,2.80
2018-04-26T08:43:29.339Z,2.50
2018-04-26T08:45:58.540Z,2.30
2018-04-26T08:48:27.734Z,2.60
2018-04-26T08:50:57.251Z,2.33
2018-04-26T08:53:26.442Z,2.57
2018-04-26T08:55:55.963Z,2.10
2018-04-26T08:58:25.547Z,2.73
2018-04-26T09:00:55.519Z,2.40
2018-04-26T09:03:24.971Z,2.97
2018-04-26T09:05:54.583Z,2.20
2018-04-26T09:08:24.037Z,2.23
2018-04-26T09:10:53.506Z,2.97
2018-04-26T09:13:23.011Z,2.47
2018-04-26T09:15:52.526Z,3.00
2018-04-26T09:18:22.033Z,2.80
2018-04-26T09:20:51.893Z,2.43
2018-04-26T09:23:21.360Z,2.50
2018-04-26T09:25:50.890Z,2.37
2018-04-26T09:28:20.345Z,2.40
2018-04-26T09:30:49.845Z,2.70
2018-04-26T09:33:19.390Z,2.40
2018-04-26T09:35:48.821Z,2.37
2018-04-26T09:38:18.335Z,2.20
2018-04-26T09:40:48.023Z,2.30
2018-04-26T09:43:17.444Z,2.33
2018-04-26T09:45:46.868Z,1.70
2018-04-26T09:48:16.474Z,2.00
2018-04-26T09:50:45.672Z,1.60
2018-04-26T09:53:14.943Z,1.80
2018-04-26T09:55:44.451Z,2.73
2018-04-26T09:58:13.973Z,1.77
2018-04-26T10:00:43.172Z,1.73
2018-04-26T10:03:12.683Z,1.33
2018-04-26T10:05:56.791Z,1.70
2018-04-26T10:08:26.359Z,1.90
2018-04-26T10:10:55.939Z,1.50
2018-04-26T10:13:25.454Z,1.40
2018-04-26T10:15:54.827Z,1.60
2018-04-26T10:18:24.296Z,1.30
2018-04-26T10:20:53.496Z,1.30
2018-04-26T10:23:22.699Z,1.30
2018-04-26T10:25:52.209Z,1.80
2018-04-26T10:28:21.415Z,1.60
2018-04-26T10:30:50.902Z,1.60
2018-04-26T10:33:20.405Z,1.83
2018-04-26T10:35:50.427Z,1.30
2018-04-26T10:38:21.168Z,1.70
2018-04-26T10:40:50.403Z,1.30
2018-04-26T10:43:19.760Z,1.23
2018-04-26T10:45:48.957Z,1.10
2018-04-26T10:48:20.671Z,1.10
2018-04-26T10:50:50.173Z,0.90
2018-04-26T10:53:19.743Z,1.17
2018-04-26T10:55:49.211Z,1.30
2018-04-26T10:58:18.689Z,0.90
2018-04-26T11:00:48.197Z,1.30
2018-04-26T11:03:17.676Z,1.30
2018-04-26T11:05:46.919Z,1.20
2018-04-26T11:08:16.519Z,1.40
2018-04-26T11:10:45.711Z,1.27
2018-04-26T11:13:14.907Z,1.50
2018-04-26T11:15:44.413Z,2.17
2018-04-26T11:18:13.914Z,1.57
2018-04-26T11:20:43.115Z,1.60
2018-04-26T11:23:12.623Z,1.27
2018-04-26T11:25:42.163Z,1.50
2018-04-26T11:28:11.364Z,1.53
2018-04-26T11:30:41.081Z,2.00
2018-04-26T11:33:10.299Z,1.10
2018-04-26T11:35:39.893Z,1.27
2018-04-26T11:38:09.372Z,1.50
2018-04-26T11:40:38.911Z,1.20
2018-04-26T11:43:08.397Z,1.30
2018-04-26T11:45:37.594Z,1.23
2018-04-26T11:48:07.106Z,1.10
2018-04-26T11:50:36.615Z,1.50
2018-04-26T11:53:05.814Z,1.43
2018-04-26T11:55:35.249Z,1.50
2018-04-26T11:58:04.519Z,1.57
2018-04-26T12:00:34.577Z,1.40
2018-04-26T12:03:04.045Z,2.13
2018-04-26T12:05:34.132Z,2.20
2018-04-26T12:08:03.617Z,1.63
2018-04-26T12:10:32.855Z,2.50
2018-04-26T12:13:02.399Z,1.63
2018-04-26T12:15:31.912Z,1.83
2018-04-26T12:18:01.446Z,1.60
2018-04-26T12:20:31.048Z,1.40
2018-04-26T12:23:00.544Z,1.33
2018-04-26T12:25:30.075Z,1.40
2018-04-26T12:27:59.592Z,1.37
2018-04-26T12:30:29.067Z,1.43
2018-04-26T12:32:58.587Z,1.17
2018-04-26T12:35:27.839Z,1.40
2018-04-26T12:37:57.037Z,1.30
2018-04-26T12:40:26.795Z,1.13
2018-04-26T12:42:55.992Z,1.27
2018-04-26T12:45:25.508Z,1.33
2018-04-26T12:47:55.125Z,1.17
2018-04-26T12:50:24.632Z,1.73
2018-04-26T12:52:54.271Z,1.27
2018-04-26T12:55:23.765Z,1.63
2018-04-26T12:57:53.186Z,1.33
2018-04-26T13:00:22.694Z,1.00
2018-04-26T13:02:53.120Z,1.13
2018-04-26T13:05:22.575Z,1.13
2018-04-26T13:07:52.614Z,1.20
2018-04-26T13:10:22.074Z,1.37
2018-04-26T13:12:51.698Z,1.20
2018-04-26T13:15:21.154Z,1.80
2018-04-26T13:17:50.371Z,1.27
2018-04-26T13:20:19.963Z,1.10
2018-04-26T13:22:49.502Z,1.57
2018-04-26T13:25:19.106Z,1.10
2018-04-26T13:27:49.013Z,1.33
2018-04-26T13:30:18.620Z,1.10
2018-04-26T13:32:47.978Z,1.13
2018-04-26T13:35:17.561Z,1.30
2018-04-26T13:37:47.243Z,1.30
2018-04-26T13:40:16.615Z,1.30
2018-04-26T13:42:46.288Z,1.30
2018-04-26T13:45:15.597Z,1.37
2018-04-26T13:47:45.075Z,1.33
2018-04-26T13:50:14.327Z,1.40
2018-04-26T13:52:43.992Z,1.17
2018-04-26T13:55:13.575Z,1.50
2018-04-26T13:57:43.087Z,1.40
2018-04-26T14:00:12.634Z,0.97
2018-04-26T14:02:41.781Z,1.10
2018-04-26T14:05:10.999Z,1.60
2018-04-26T14:07:40.427Z,1.20
2018-04-26T14:10:09.860Z,1.33
2018-04-26T14:12:39.477Z,1.40
2018-04-26T14:15:08.961Z,1.30
2018-04-26T14:17:38.167Z,1.43
2018-04-26T14:20:07.697Z,1.17
2018-04-26T14:22:36.883Z,1.47
2018-04-26T14:25:06.612Z,1.47
2018-04-26T14:27:36.225Z,1.20
2018-04-26T14:30:05.743Z,1.37
2018-04-26T14:32:35.215Z,1.10
2018-04-26T14:35:04.823Z,1.20
2018-04-26T14:37:35.292Z,1.30
2018-04-26T14:40:04.793Z,0.90
2018-04-26T14:42:34.271Z,1.57
2018-04-26T14:45:03.811Z,0.90
2018-04-26T14:47:33.218Z,1.10
2018-04-26T14:50:02.700Z,0.90
2018-04-26T14:52:32.416Z,1.03
2018-04-26T14:55:01.924Z,0.83
2018-04-26T14:57:31.656Z,0.70
2018-04-26T15:00:00.851Z,1.07
2018-04-26T15:02:30.374Z,1.13
2018-04-26T15:04:59.647Z,0.83
2018-04-26T15:07:29.122Z,1.20
2018-04-26T15:09:58.431Z,0.90
2018-04-26T15:12:27.639Z,0.90
2018-04-26T15:14:56.839Z,1.10
2018-04-26T15:17:27.125Z,0.70
2018-04-26T15:19:56.580Z,1.40
2018-04-26T15:22:25.798Z,1.10
2018-04-26T15:24:55.319Z,1.27
2018-04-26T15:27:24.823Z,1.30
2018-04-26T15:29:54.330Z,1.10
2018-04-26T15:32:23.536Z,1.10
2018-04-26T15:34:52.734Z,1.03
2018-04-26T15:37:21.988Z,0.93
2018-04-26T15:39:51.477Z,1.03
2018-04-26T15:42:20.780Z,1.10
2018-04-26T15:44:49.977Z,1.00
2018-04-26T15:47:19.428Z,1.37
2018-04-26T15:49:48.630Z,1.03
2018-04-26T15:52:23.837Z,1.10
2018-04-26T15:54:59.279Z,0.77
2018-04-26T15:57:37.147Z,0.90
2018-04-26T16:00:12.323Z,0.90
2018-04-26T16:02:58.504Z,1.10
2018-04-26T16:05:34.743Z,0.80
2018-04-26T16:08:16.016Z,0.77
2018-04-26T16:10:57.399Z,0.90
2018-04-26T16:13:49.961Z,0.80
2018-04-26T16:16:31.103Z,0.73
2018-04-26T16:19:07.384Z,0.90
2018-04-26T16:21:57.711Z,0.80
2018-04-26T16:24:38.564Z,0.80
2018-04-26T16:27:19.826Z,1.10
2018-04-26T16:29:55.241Z,0.90
2018-04-26T16:32:36.558Z,0.97
2018-04-26T16:35:17.516Z,1.00
2018-04-26T16:37:58.808Z,1.00
2018-04-26T16:40:28.303Z,1.10
2018-04-26T16:42:57.865Z,1.07
2018-04-26T16:45:27.372Z,1.30
2018-04-26T16:47:57.667Z,0.90
2018-04-26T16:50:26.896Z,1.17
2018-04-26T16:52:56.091Z,1.70
2018-04-26T16:55:25.449Z,1.00
2018-04-26T16:57:54.872Z,1.33
2018-04-26T17:00:24.321Z,1.20
2018-04-26T17:02:53.524Z,1.20
2018-04-26T17:05:22.895Z,0.97
2018-04-26T17:07:52.087Z,0.93
2018-04-26T17:10:21.535Z,0.80
2018-04-26T17:12:50.800Z,0.90
2018-04-26T17:15:20.056Z,1.07
2018-04-26T17:17:49.460Z,1.00
2018-04-26T17:20:18.719Z,0.70
2018-04-26T17:22:48.211Z,0.70
2018-04-26T17:25:17.679Z,0.60
2018-04-26T17:27:47.199Z,0.90
2018-04-26T17:30:16.371Z,0.80
2018-04-26T17:32:45.568Z,0.60
2018-04-26T17:35:15.035Z,0.70
2018-04-26T17:37:44.227Z,0.60
2018-04-26T17:40:13.922Z,0.80
2018-04-26T17:42:43.060Z,0.70
2018-04-26T17:45:13.407Z,0.63
2018-04-26T17:47:42.943Z,0.70
2018-04-26T17:50:12.139Z,0.70
2018-04-26T17:52:41.598Z,0.77
2018-04-26T17:55:10.843Z,0.60
2018-04-26T17:57:40.323Z,0.50
2018-04-26T18:00:09.832Z,0.83
2018-04-26T18:02:39.172Z,0.80
2018-04-26T18:05:08.850Z,0.80
2018-04-26T18:07:38.367Z,0.80
2018-04-26T18:10:07.852Z,1.00
2018-04-26T18:12:37.348Z,1.50
2018-04-26T18:15:06.546Z,0.90
2018-04-26T18:17:35.792Z,1.10
2018-04-26T18:20:08.574Z,0.93
2018-04-26T18:22:34.590Z,0.80
2018-04-26T18:25:04.052Z,1.20
2018-04-26T18:27:34.088Z,0.90
2018-04-26T18:30:04.253Z,0.80
2018-04-26T18:32:33.876Z,0.87
2018-04-26T18:35:04.239Z,0.97
2018-04-26T18:37:33.810Z,1.03
2018-04-26T18:40:03.283Z,0.73
2018-04-26T18:42:32.783Z,0.73
2018-04-26T18:45:02.326Z,0.90
2018-04-26T18:47:31.831Z,0.63
2018-04-26T18:50:01.504Z,0.67
2018-04-26T18:52:32.164Z,0.70
2018-04-26T18:55:01.679Z,0.70
2018-04-26T18:57:31.176Z,0.90
2018-04-26T19:00:00.371Z,0.73
2018-04-26T19:02:30.525Z,0.70
2018-04-26T19:05:00.010Z,0.70
2018-04-26T19:07:29.542Z,0.50
2018-04-26T19:09:59.051Z,0.57
2018-04-26T19:12:28.560Z,0.80
2018-04-26T19:14:58.147Z,0.60
2018-04-26T19:17:27.681Z,0.63
2018-04-26T19:19:56.887Z,0.70
2018-04-26T19:22:26.371Z,0.63
2018-04-26T19:24:55.875Z,0.80
2018-04-26T19:27:25.717Z,0.70
2018-04-26T19:29:55.972Z,0.70
2018-04-26T19:32:25.456Z,0.77
2018-04-26T19:34:55.043Z,0.67
2018-04-26T19:37:24.248Z,0.60
2018-04-26T19:39:53.956Z,0.80
2018-04-26T19:42:23.152Z,0.60
2018-04-26T19:44:52.343Z,0.60
2018-04-26T19:47:21.996Z,0.50
2018-04-26T19:49:51.207Z,0.70
2018-04-26T19:52:20.809Z,0.70
2018-04-26T19:54:50.319Z,0.90
2018-04-26T19:57:19.832Z,0.60
2018-04-26T19:59:49.036Z,0.60
2018-04-26T20:02:18.516Z,0.70
2018-04-26T20:04:48.052Z,0.70
2018-04-26T20:07:17.508Z,0.97
2018-04-26T20:09:47.785Z,2.37
2018-04-26T20:12:17.190Z,1.40
2018-04-26T20:14:46.702Z,0.80
2018-04-26T20:17:16.187Z,0.70
2018-04-26T20:19:45.662Z,0.97
2018-04-26T20:22:15.843Z,0.50
2018-04-26T20:24:46.683Z,0.93
2018-04-26T20:27:16.163Z,1.13
2018-04-26T20:29:45.785Z,0.90
2018-04-26T20:32:15.115Z,0.90
2018-04-26T20:34:44.447Z,1.33
2018-04-26T20:37:13.855Z,1.10
2018-04-26T20:39:43.055Z,1.00
2018-04-26T20:42:12.292Z,0.97
2018-04-26T20:44:47.770Z,1.00
2018-04-26T20:47:17.270Z,0.70
2018-04-26T20:49:46.743Z,0.73
2018-04-26T20:52:16.247Z,0.80
2018-04-26T20:54:45.494Z,1.00
2018-04-26T20:57:15.004Z,1.00
2018-04-26T20:59:44.536Z,1.07
2018-04-26T21:02:13.773Z,1.00
2018-04-26T21:04:43.399Z,1.20
2018-04-26T21:07:12.780Z,1.47
2018-04-26T21:09:43.140Z,1.10
2018-04-26T21:12:12.594Z,0.80
2018-04-26T21:14:42.103Z,0.80
2018-04-26T21:17:11.615Z,0.90
2018-04-26T21:19:41.275Z,0.90
2018-04-26T21:22:10.535Z,0.80
2018-04-26T21:24:40.134Z,1.13
2018-04-26T21:27:09.636Z,0.80
2018-04-26T21:29:38.924Z,0.80
2018-04-26T21:32:08.447Z,0.87
2018-04-26T21:34:37.671Z,0.90
2018-04-26T21:37:06.868Z,0.80
2018-04-26T21:39:36.223Z,0.77
2018-04-26T21:42:05.453Z,0.80
2018-04-26T21:44:36.127Z,0.83
2018-04-26T21:47:05.728Z,0.60
2018-04-26T21:49:34.781Z,0.80
2018-04-26T21:52:10.040Z,0.67
2018-04-26T21:54:45.363Z,0.80
2018-04-26T21:57:20.269Z,0.73
2018-04-26T21:59:55.735Z,0.73
2018-04-26T22:02:24.858Z,0.70
2018-04-26T22:05:00.251Z,0.70
2018-04-26T22:07:29.448Z,0.70
2018-04-26T22:09:58.983Z,0.80
2018-04-26T22:12:28.379Z,0.90
2018-04-26T22:14:57.930Z,0.73
2018-04-26T22:17:28.092Z,1.00
2018-04-26T22:19:57.500Z,0.77
2018-04-26T22:22:28.131Z,1.13
2018-04-26T22:24:57.339Z,0.90
2018-04-26T22:27:26.715Z,0.80
2018-04-26T22:29:56.909Z,0.70
2018-04-26T22:32:26.483Z,1.00
2018-04-26T22:34:55.948Z,0.60
2018-04-26T22:37:25.427Z,0.70
2018-04-26T22:39:54.934Z,0.60
2018-04-26T22:42:25.013Z,0.80
2018-04-26T22:44:54.475Z,0.60
2018-04-26T22:47:23.894Z,0.70
2018-04-26T22:49:53.223Z,1.00
2018-04-26T22:52:22.683Z,0.60
2018-04-26T22:54:52.039Z,0.83
2018-04-26T22:57:21.606Z,0.87
2018-04-26T22:59:51.139Z,0.80
2018-04-26T23:02:20.646Z,0.63
2018-04-26T23:04:50.127Z,0.70
2018-04-26T23:07:19.386Z,0.70
2018-04-26T23:09:48.645Z,0.93
2018-04-26T23:12:18.147Z,0.90
2018-04-26T23:14:47.344Z,0.70
2018-04-26T23:17:16.735Z,0.83
2018-04-26T23:19:46.278Z,0.80
2018-04-26T23:22:15.776Z,1.00
2018-04-26T23:24:45.284Z,0.90
2018-04-26T23:27:14.791Z,0.83
2018-04-26T23:29:44.307Z,0.80
2018-04-26T23:32:13.839Z,0.90
2018-04-26T23:34:43.348Z,0.90
2018-04-26T23:37:13.370Z,0.90
2018-04-26T23:39:42.707Z,0.93
2018-04-26T23:42:12.251Z,0.90
2018-04-26T23:44:41.444Z,0.90
2018-04-26T23:47:10.695Z,0.80
2018-04-26T23:49:40.195Z,1.00
2018-04-26T23:52:09.713Z,1.10
2018-04-26T23:54:39.139Z,0.90
2018-04-26T23:57:08.620Z,0.80
2018-04-26T23:59:37.820Z,0.83
